Nearby METAR Reports

 

KSJC - San Jose, California, USA
Distance from station: NE 14km
Updated: 22/09/2019 08:53
Few Clouds
Few Clouds
 Wind from calm
Wind: Calm
Temperature: 19°C
Dew Point: 10°C
Humidity: 56%
Barometer: 1013.9 hPa
Clouds: Few Clouds
Visibility: 16 km
Cloud details: Few Clouds 1676 m
2019/09/22 15:53 KSJC 221553Z 00000KT 10SM FEW055 19/10 A2994 RMK AO2 SLP137 T01890100
KNUQ - Moffett Nas/Mtn, California, USA
Distance from station: N 14km
Updated: 22/09/2019 08:56

 
Barometer: 1014.2 hPa
2019/09/22 15:56 KNUQ 221556Z A2995 RMK AO2 SLP146 PWINO $
 
KPAO - Palo Alto, California, USA
Distance from station: NNW 23km
Updated: 22/09/2019 08:47
Few Clouds
Few Clouds
 Wind from calm
Wind: Calm
Temperature: 19°C
Dew Point: 14°C
Humidity: 73%
Barometer: 1014.2 hPa
Clouds: Few Clouds
Visibility: 16 km
Cloud details: Few Clouds 3658 m
2019/09/22 15:47 KPAO 221547Z 00000KT 10SM FEW120 19/14 A2995
KRHV - San Jose/Reid, California, USA
Distance from station: ENE 19km
Updated: 22/09/2019 08:47
Clear
Clear
 Wind from calm
Wind: Calm
Temperature: 18°C
Dew Point: 9°C
Humidity: 56%
Barometer: 1013.9 hPa
Clouds: Clear
Visibility: 16 km
2019/09/22 15:47 KRHV 221547Z 00000KT 10SM SKC 18/09 A2994
 
KOAK - Oakland, California, USA
Distance from station: NNW 50km
Updated: 22/09/2019 08:53
Few Clouds
Few Clouds
 Wind from NW
Wind: NW 11 km/h
Temperature: 18°C
Dew Point: 14°C
Humidity: 78%
Barometer: 1014.2 hPa
Clouds: Few Clouds
Visibility: 16 km
Cloud details: Few Clouds 1829 m
Few Clouds 7620 m
2019/09/22 15:53 KOAK 221553Z 32006KT 10SM FEW060 FEW250 18/14 A2995 RMK AO2 SLP139 T01830144
KSQL - San Carlos Airpo, California, USA
Distance from station: NW 34km
Updated: 22/09/2019 08:47
Clear
Clear
 Wind from calm
Wind: Calm
Temperature: 19°C
Dew Point: 13°C
Humidity: 68%
Barometer: 1014.2 hPa
Clouds: Clear
Visibility: 16 km
2019/09/22 15:47 KSQL 221547Z 00000KT 10SM SKC 19/13 A2995
 
KSFO - San Francisco, California, USA
Distance from station: NW 49km
Updated: 22/09/2019 08:56
Few Clouds
Few Clouds
 Wind from WNW
Wind: WNW 20 km/h
Temperature: 16°C
Dew Point: 13°C
Humidity: 83%
Barometer: 1013.9 hPa
Clouds: Few Clouds
Visibility: 16 km
Cloud details: Few Clouds 213 m
2019/09/22 15:56 KSFO 221556Z 29011KT 10SM FEW007 16/13 A2994 RMK AO2 SLP137 T01610128
KE16 - San Martin, California, USA
Distance from station: ESE 43km
Updated: 22/09/2019 09:35
Clear
Clear
 Wind from calm
Wind: Calm
Temperature: 19°C
Dew Point: 8°C
Humidity: 49%
Barometer: 1014.9 hPa
Clouds: Clear
Visibility: 16 km
2019/09/22 16:35 KE16 221635Z AUTO 00000KT 10SM CLR 19/08 A2997 RMK AO2
 
KWVI - Watsonville, California, USA
Distance from station: SSE 44km
Updated: 22/09/2019 08:53
Clear
Clear
 Wind from calm
Wind: Calm
Temperature: 18°C
Dew Point: 9°C
Humidity: 56%
Barometer: 1014.2 hPa
Clouds: Clear
Visibility: 16 km
2019/09/22 15:53 KWVI 221553Z AUTO 00000KT 10SM CLR 18/09 A2995 RMK AO2 SLP141 T01780094 $
KHAF - Half Moon Bay, California, USA
Distance from station: WNW 50km
Updated: 22/09/2019 09:35
Mist, Overcast
Mist, Overcast
 Wind from W
Wind: W 6 km/h
Temperature: 14°C
Dew Point: 13°C
Humidity: 94%
Barometer: 1014.9 hPa
Summary: Mist
Clouds: Overcast
Visibility: 5 km
Cloud details: Overcast 122 m
2019/09/22 16:35 KHAF 221635Z AUTO 26003KT 3SM BR OVC004 14/13 A2997 RMK AO2
 
KHWD - Hayward, California, USA
Distance from station: N 44km
Updated: 22/09/2019 08:54
Clear
Clear
 Wind from calm
Wind: Calm
Temperature: 18°C
Dew Point: 11°C
Humidity: 64%
Barometer: 1013.9 hPa
Clouds: Clear
Visibility: 16 km
2019/09/22 15:54 KHWD 221554Z 00000KT 10SM CLR 18/11 A2994 RMK AO2 SLP147 T01830111
KLVK - Livermore, California, USA
Distance from station: NNE 51km
Updated: 22/09/2019 08:53
Clear
Clear
 Wind from calm
Wind: Calm
Temperature: 18°C
Dew Point: 8°C
Humidity: 52%
Barometer: 1013.9 hPa
Clouds: Clear
Visibility: 16 km
2019/09/22 15:53 KLVK 221553Z 00000KT 10SM CLR 18/08 A2994 RMK AO2 SLP135 T01780083